Time;durP1;ratioP1;P1;durP2;ratioP2;P2;SDS_P1;SDS_P2;PMS_P1;PMS_P2;Temp;Humidity;BMP_temperature;BMP_pressure;BME280_temperature;BME280_humidity;BME280_pressure;Samples;Min_cycle;Max_cycle;Signal;HPM_P1;HPM_P2
2022/12/11 00:00:50;;;;;;;16.40;9.40;;;1.90;91.00;;;2.39;59.21;98100.88;4943530;28;123362;-73
2022/12/11 00:03:17;;;;;;;14.80;9.10;;;1.90;91.00;;;2.38;59.15;98099.25;4959418;28;119284;-73
2022/12/11 00:05:45;;;;;;;16.87;9.30;;;1.90;91.00;;;2.38;59.21;98097.34;4941470;28;119139;-73
2022/12/11 00:08:12;;;;;;;13.00;8.03;;;1.90;91.00;;;2.38;59.30;98094.63;4960453;28;123908;-72
2022/12/11 00:10:38;;;;;;;17.03;9.30;;;1.90;91.00;;;2.38;58.71;98093.81;4959639;28;124232;-74
2022/12/11 00:13:06;;;;;;;17.30;10.87;;;1.90;90.90;;;2.39;58.81;98092.72;4961008;28;118957;-74
2022/12/11 00:15:32;;;;;;;16.90;9.43;;;3.00;91.40;;;2.41;58.82;98098.69;4962473;28;118971;-74
2022/12/11 00:17:59;;;;;;;13.73;9.13;;;1.90;90.90;;;2.40;58.93;98097.91;4959855;28;124576;-74
2022/12/11 00:20:26;;;;;;;16.17;8.90;;;1.90;90.90;;;2.41;58.75;98104.16;4935790;28;123856;-74
2022/12/11 00:22:52;;;;;;;14.63;8.73;;;1.90;90.90;;;2.42;58.66;98092.19;4961429;28;121017;-74
2022/12/11 00:25:18;;;;;;;13.73;8.33;;;1.90;90.80;;;2.42;58.74;98100.34;4962702;28;120149;-74
2022/12/11 00:27:46;;;;;;;16.47;9.13;;;1.90;90.80;;;2.43;58.75;98099.25;4953300;28;124341;-74
2022/12/11 00:30:13;;;;;;;10.13;7.33;;;1.90;90.80;;;2.45;58.61;98104.44;4942114;28;123646;-73
2022/12/11 00:32:43;;;;;;;13.30;8.47;;;2.00;90.80;;;2.46;58.66;98098.69;4937124;28;119330;-74
2022/12/11 00:35:10;;;;;;;14.80;8.93;;;2.00;90.80;;;2.47;58.64;98097.59;4923014;28;118981;-73
2022/12/11 00:37:36;;;;;;;18.23;10.13;;;2.00;90.70;;;2.48;58.40;98096.50;4932808;28;123963;-73
2022/12/11 00:40:04;;;;;;;14.00;8.13;;;3.30;91.30;;;2.51;58.29;98095.16;4914369;28;123280;-73
2022/12/11 00:42:31;;;;;;;14.33;9.30;;;2.00;90.70;;;2.53;58.79;98090.25;4939139;28;120156;-73
2022/12/11 00:44:58;;;;;;;18.30;9.80;;;2.00;90.80;;;2.55;58.57;98093.47;4937575;28;119015;-74
2022/12/11 00:47:25;;;;;;;14.00;8.70;;;2.00;90.70;;;2.58;58.66;98101.09;4933855;28;124150;-74
2022/12/11 00:49:51;;;;;;;16.37;9.87;;;2.10;90.80;;;2.59;58.93;98089.94;4937519;28;123605;-74
2022/12/11 00:52:20;;;;;;;14.50;8.97;;;2.10;90.80;;;2.59;58.38;98089.94;4938365;28;119342;-73
2022/12/11 00:54:46;;;;;;;14.37;9.10;;;2.00;90.70;;;2.58;58.43;98092.91;4933400;28;118942;-74
2022/12/11 00:57:12;;;;;;;15.87;11.07;;;2.60;91.00;;;2.59;58.54;98084.47;4929468;28;123976;-74
2022/12/11 00:59:39;;;;;;;17.27;10.20;;;2.10;90.80;;;2.60;58.54;98088.00;4938829;28;124525;-74
2022/12/11 01:02:12;;;;;;;14.17;8.90;;;2.10;90.70;;;2.65;58.62;98096.19;4928287;28;119635;-73
2022/12/11 01:04:38;;;;;;;14.97;9.70;;;2.10;90.80;;;2.62;58.57;98104.91;4942827;28;119024;-73
2022/12/11 01:07:05;;;;;;;16.53;9.77;;;2.10;90.70;;;2.62;58.67;98105.72;4943535;28;123973;-73
2022/12/11 01:12:17;;;;;;;18.40;9.80;;;2.10;90.70;;;2.63;58.10;98118.28;4944110;28;121414;-73
2022/12/11 01:14:43;;;;;;;17.77;10.33;;;2.10;90.70;;;2.64;58.06;98119.09;4943491;28;120003;-73
2022/12/11 01:17:10;;;;;;;16.97;10.27;;;2.10;90.70;;;2.65;58.50;98126.19;4941169;28;123945;-74
2022/12/11 01:19:37;;;;;;;16.70;10.33;;;2.10;90.70;;;2.68;58.60;98122.09;4926155;28;123780;-73
2022/12/11 01:22:03;;;;;;;16.03;10.13;;;2.20;90.70;;;2.71;58.57;98124.25;4936400;28;119169;-73
2022/12/11 01:24:30;;;;;;;13.00;8.77;;;2.20;90.70;;;2.73;58.25;98119.34;4940165;28;119070;-74
2022/12/11 01:26:56;;;;;;;18.53;10.53;;;2.90;90.90;;;2.75;58.48;98130.78;4898311;28;1213777;-74
2022/12/11 01:29:23;;;;;;;15.70;9.27;;;2.20;90.70;;;2.79;58.38;98137.31;4946015;28;103667;-73
2022/12/11 01:31:49;;;;;;;15.23;9.60;;;2.30;90.70;;;2.81;57.99;98129.69;4964672;28;119038;-73
2022/12/11 01:34:16;;;;;;;18.87;10.33;;;2.30;90.60;;;2.83;58.39;98130.22;4964852;28;119576;-74
2022/12/11 01:36:42;;;;;;;14.57;9.20;;;2.30;90.60;;;2.87;58.39;98131.28;4945912;28;123967;-74
2022/12/11 01:39:09;;;;;;;17.63;10.60;;;2.40;90.70;;;2.90;58.32;98125.25;4943263;28;123119;-74
2022/12/11 01:41:35;;;;;;;16.10;10.87;;;2.40;90.60;;;2.90;58.20;98130.72;4965038;28;118743;-74
2022/12/11 01:44:06;;;;;;;17.27;11.77;;;2.40;90.60;;;2.92;58.03;98136.72;4947182;28;118843;-74
2022/12/11 01:46:35;;;;;;;19.40;10.40;;;2.40;90.60;;;2.90;57.82;98136.19;4945183;28;123303;-74
2022/12/11 01:49:07;;;;;;;19.60;10.70;;;2.80;90.60;;;2.85;57.76;98137.03;4962387;28;124155;-74
2022/12/11 01:51:54;;;;;;;16.20;10.27;;;2.40;90.30;;;2.80;57.62;98138.97;4946149;28;119181;-74
2022/12/11 01:54:24;;;;;;;23.23;11.23;;;2.30;90.20;;;2.74;57.77;98140.91;4948052;28;119033;-74
2022/12/11 01:56:55;;;;;;;17.30;9.37;;;2.30;90.20;;;2.73;57.62;98139.25;4945188;28;125784;-74
2022/12/11 01:59:26;;;;;;;19.80;11.13;;;2.30;90.20;;;2.75;57.63;98136.25;4932172;28;123414;-74
2022/12/11 02:02:11;;;;;;;17.93;11.70;;;2.30;90.20;;;2.79;57.59;98146.31;4936315;28;120388;-74
2022/12/11 02:04:40;;;;;;;16.23;9.33;;;2.30;90.10;;;2.74;57.65;98140.91;4940487;28;120001;-74
2022/12/11 02:07:08;;;;;;;17.50;9.70;;;2.30;90.10;;;2.74;57.50;98140.06;4950703;28;122751;-75
2022/12/11 02:09:40;;;;;;;17.23;10.87;;;2.30;90.10;;;2.76;57.75;98148.78;4964825;28;123260;-74
2022/12/11 02:12:38;;;;;;;15.80;10.40;;;2.20;90.10;;;2.79;57.68;98140.84;4966858;28;118712;-73
2022/12/11 02:15:24;;;;;;;19.77;10.60;;;2.30;90.20;;;2.79;57.55;98143.56;4949019;28;118443;-74
2022/12/11 02:18:13;;;;;;;13.83;8.70;;;2.30;90.20;;;2.81;57.68;98146.03;4946217;28;125268;-73
2022/12/11 02:20:49;;;;;;;19.73;10.47;;;2.30;90.10;;;2.74;57.41;98148.25;4965729;28;122942;-73
2022/12/11 02:23:58;;;;;;;15.07;9.00;;;2.30;90.00;;;2.73;57.57;98150.16;4964990;28;119740;-74
2022/12/11 02:27:18;;;;;;;14.33;7.90;;;2.30;90.00;;;2.73;57.51;98138.44;4964451;28;118962;-74
2022/12/11 02:30:07;;;;;;;14.80;8.77;;;2.30;90.00;;;2.71;57.21;98135.16;4950285;28;124479;-74
2022/12/11 02:32:47;;;;;;;13.33;7.97;;;2.30;90.00;;;2.71;57.17;98129.69;4965524;28;122580;-74
2022/12/11 02:35:30;;;;;;;13.43;8.20;;;2.20;90.00;;;2.75;57.36;98130.78;4967468;28;119257;-74
2022/12/11 02:38:04;;;;;;;12.27;7.97;;;2.30;90.00;;;2.77;57.39;98123.97;4947298;28;118985;-74
2022/12/11 02:40:34;;;;;;;14.00;8.77;;;2.40;90.00;;;2.80;57.03;98134.31;4946300;28;123561;-74
2022/12/11 02:43:04;;;;;;;14.20;8.30;;;2.30;90.00;;;2.82;57.05;98140.31;4950159;28;123153;-74
2022/12/11 02:45:32;;;;;;;10.90;7.50;;;2.40;90.20;;;2.84;57.17;98140.84;4949453;28;118570;-74
2022/12/11 02:48:03;;;;;;;14.87;8.80;;;2.40;89.90;;;2.87;57.25;98137.56;4950289;28;119199;-74
2022/12/11 02:50:30;;;;;;;14.30;8.70;;;2.40;89.90;;;2.88;57.33;98136.47;4968041;28;124455;-74
2022/12/11 02:52:58;;;;;;;15.47;8.73;;;2.40;89.80;;;2.90;57.19;98138.91;4947249;28;123537;-74
2022/12/11 02:55:27;;;;;;;15.17;9.40;;;2.40;89.70;;;2.88;56.86;98138.38;4943776;28;120362;-74
2022/12/11 02:58:12;;;;;;;17.80;10.03;;;2.40;89.70;;;2.87;57.57;98145.75;4963755;28;120507;-74
2022/12/11 03:00:38;;;;;;;11.80;8.63;;;2.40;89.80;;;2.80;57.77;98139.78;4949731;28;122951;-73
2022/12/11 03:03:05;;;;;;;12.77;7.77;;;2.40;89.80;;;2.75;57.34;98136.25;4949553;28;122605;-74
2022/12/11 03:05:32;;;;;;;14.70;9.23;;;2.40;89.90;;;2.68;57.50;98135.72;4966855;28;118591;-74
2022/12/11 03:07:58;;;;;;;14.10;9.10;;;2.30;89.90;;;2.63;57.65;98125.63;4968259;28;117454;-74
2022/12/11 03:10:25;;;;;;;14.00;8.13;;;2.30;90.00;;;2.61;57.78;98136.03;4966380;28;123416;-74
2022/12/11 03:12:54;;;;;;;15.17;9.30;;;2.20;90.00;;;2.61;57.89;98125.94;4967844;28;123167;-74
2022/12/11 03:15:29;;;;;;;13.13;8.13;;;2.20;90.10;;;2.63;57.93;98128.34;4944594;28;119943;-74
2022/12/11 03:18:15;;;;;;;12.00;7.90;;;2.50;90.20;;;2.64;57.76;98133.56;4963804;28;119059;-74
2022/12/11 03:21:12;;;;;;;12.13;8.23;;;2.20;90.20;;;2.65;58.22;98129.72;4965293;28;123962;-74
2022/12/11 03:23:51;;;;;;;12.67;8.00;;;2.20;90.20;;;2.67;58.11;98131.38;4966269;28;123677;-74
2022/12/11 03:26:19;;;;;;;16.40;9.00;;;2.30;90.30;;;2.67;58.31;98129.44;4945098;28;119787;-74
2022/12/11 03:28:59;;;;;;;14.13;9.80;;;2.30;90.30;;;2.73;58.09;98138.44;4966598;28;119328;-74
2022/12/11 03:31:44;;;;;;;12.90;8.13;;;2.30;90.30;;;2.73;57.88;98132.97;4931714;28;123529;-73
2022/12/11 03:34:22;;;;;;;12.20;7.20;;;2.30;90.30;;;2.73;58.09;98141.16;4949156;28;122615;-73
2022/12/11 03:36:51;;;;;;;14.10;8.60;;;2.30;90.40;;;2.72;58.29;98136.81;4948037;28;121249;-74
2022/12/11 03:39:32;;;;;;;13.73;8.07;;;3.70;90.90;;;2.77;58.23;98136.78;4947984;28;119012;-74
2022/12/11 03:42:07;;;;;;;16.13;10.07;;;2.30;90.40;;;2.77;58.17;98134.06;4947302;28;124567;-74
2022/12/11 03:44:35;;;;;;;14.50;8.60;;;2.30;90.40;;;2.74;58.08;98132.72;4947070;28;122960;-74
2022/12/11 03:47:06;;;;;;;13.73;8.10;;;2.70;90.60;;;2.78;58.58;98136.50;4947093;28;121335;-73
2022/12/11 03:49:40;;;;;;;14.03;9.73;;;2.50;90.50;;;2.80;58.31;98147.16;4944398;28;119830;-74
2022/12/11 03:52:10;;;;;;;13.07;8.70;;;2.30;90.40;;;2.78;58.44;98130.22;4946467;28;123937;-75
2022/12/11 03:54:40;;;;;;;18.50;9.17;;;2.30;90.50;;;2.78;58.23;98132.97;4963012;28;123683;-74
2022/12/11 03:57:09;;;;;;;16.13;9.10;;;2.30;90.50;;;2.78;58.43;98141.97;4945226;28;119218;-74
2022/12/11 03:59:36;;;;;;;14.30;9.10;;;2.30;90.80;;;2.78;58.42;98138.41;4945526;28;118683;-74
2022/12/11 04:02:09;;;;;;;15.17;9.10;;;2.30;90.50;;;2.78;58.45;98132.97;4963797;28;123914;-74
2022/12/11 04:04:40;;;;;;;18.80;8.07;;;2.30;90.50;;;2.79;58.47;98134.59;4944226;28;123428;-75
2022/12/11 04:07:08;;;;;;;13.40;9.20;;;2.30;90.50;;;2.77;58.23;98128.63;4930685;28;120161;-75
2022/12/11 04:09:35;;;;;;;16.10;9.70;;;2.30;90.50;;;2.76;58.28;98122.31;4963550;28;118964;-74
2022/12/11 04:12:02;;;;;;;14.17;8.80;;;2.30;90.50;;;2.75;58.43;98114.44;4945883;28;123973;-74
2022/12/11 04:24:13;;;;;;;11.70;7.50;;;2.30;90.50;;;2.69;58.20;98126.44;4966974;28;119622;-73
2022/12/11 04:25:32;;;;;;;15.13;8.00;;;2.20;90.30;;;2.60;57.85;98112.56;4967281;28;123666;-74
2022/12/11 04:27:58;;;;;;;13.13;8.03;;;2.20;90.20;;;2.59;57.79;98105.47;4939385;28;118328;-73
2022/12/11 04:30:25;;;;;;;15.33;9.33;;;2.20;90.20;;;2.56;57.81;98106.84;4929733;28;119075;-74
2022/12/11 04:32:53;;;;;;;17.07;9.77;;;2.20;90.10;;;2.56;57.52;98106.84;4924288;28;124031;-74
2022/12/11 04:35:21;;;;;;;13.87;8.60;;;2.20;90.00;;;2.51;57.30;98093.22;4944655;28;123654;-74
2022/12/11 04:37:48;;;;;;;13.20;7.90;;;2.10;89.80;;;2.48;57.25;98096.50;4944383;28;120701;-74
2022/12/11 04:40:17;;;;;;;14.67;9.97;;;2.10;89.70;;;2.42;57.27;98095.72;4942118;28;119736;-74
2022/12/11 04:42:44;;;;;;;17.70;9.13;;;2.00;89.50;;;2.40;57.25;98091.63;4926385;28;124003;-74
2022/12/11 04:45:11;;;;;;;16.07;8.17;;;2.00;89.50;;;2.38;57.40;98093.81;4928732;28;122593;-74
2022/12/11 04:47:40;;;;;;;13.80;8.37;;;2.00;89.60;;;2.36;57.18;98083.16;4928374;28;118972;-73
2022/12/11 04:50:09;;;;;;;16.83;9.33;;;2.20;89.70;;;2.31;57.32;98082.38;4927069;28;117812;-74
2022/12/11 04:52:35;;;;;;;13.57;9.23;;;2.90;90.10;;;2.24;57.57;98082.66;4944160;28;124235;-74
2022/12/11 04:55:07;;;;;;;15.67;9.23;;;1.90;89.40;;;2.24;57.45;98082.66;4928586;28;122936;-74
2022/12/11 04:57:34;;;;;;;16.77;10.40;;;1.90;89.50;;;2.20;57.07;98081.56;4912742;28;118035;-74
2022/12/11 05:00:03;;;;;;;16.40;10.57;;;1.80;89.30;;;2.19;57.59;98080.75;4925247;28;119718;-74
2022/12/11 05:02:33;;;;;;;11.90;8.30;;;1.80;89.40;;;2.16;57.37;98070.41;4926149;28;123982;-74
2022/12/11 05:05:00;;;;;;;14.60;8.90;;;2.00;89.50;;;2.12;57.36;98077.53;4942588;28;124767;-74
2022/12/11 05:07:26;;;;;;;12.80;8.80;;;1.80;89.40;;;2.10;57.20;98074.25;4943737;28;119285;-74
2022/12/11 05:09:53;;;;;;;14.97;9.50;;;1.70;89.30;;;2.07;57.55;98076.69;4942864;28;119094;-74
2022/12/11 05:12:19;;;;;;;12.57;8.20;;;1.70;89.30;;;2.08;57.49;98083.78;4924806;28;123995;-74
2022/12/11 05:14:46;;;;;;;12.93;7.70;;;1.70;89.50;;;2.13;58.03;98081.06;4943862;28;123560;-73
2022/12/11 05:17:12;;;;;;;12.43;8.20;;;1.70;89.60;;;2.20;57.43;98087.03;4943879;28;119886;-74
2022/12/11 05:19:39;;;;;;;15.60;9.13;;;1.80;89.80;;;2.26;57.68;98096.00;4942592;28;118898;-74
2022/12/11 05:22:05;;;;;;;14.00;9.07;;;1.80;89.80;;;2.30;57.65;98086.19;4943496;28;123836;-74
2022/12/11 05:24:31;;;;;;;14.23;8.40;;;1.80;89.80;;;2.34;57.20;98084.56;4943076;28;123048;-74
2022/12/11 05:26:58;;;;;;;14.30;9.10;;;1.80;89.70;;;2.33;57.19;98081.00;4943115;28;120095;-74
2022/12/11 05:29:24;;;;;;;13.63;8.40;;;1.90;89.70;;;2.34;57.31;98070.94;4946976;28;119516;-75
2022/12/11 05:31:51;;;;;;;12.27;8.10;;;1.90;89.60;;;2.36;57.08;98076.91;4948441;28;123092;-74
2022/12/11 05:34:17;;;;;;;17.30;9.47;;;1.90;89.60;;;2.40;56.91;98080.72;4962254;28;123762;-74
2022/12/11 05:36:44;;;;;;;12.90;7.07;;;1.90;89.50;;;2.42;57.07;98079.34;4947767;28;118386;-74
2022/12/11 05:39:10;;;;;;;13.13;7.07;;;2.00;89.50;;;2.44;56.97;98081.78;4945315;28;119961;-75
2022/12/11 05:41:37;;;;;;;11.53;7.43;;;2.20;89.60;;;2.46;56.94;98082.34;4944533;28;123229;-75
2022/12/11 05:44:04;;;;;;;13.30;7.70;;;2.00;89.30;;;2.47;56.78;98081.22;4963409;28;123549;-75
2022/12/11 05:46:31;;;;;;;13.67;8.50;;;2.00;89.20;;;2.50;56.77;98075.25;4941120;28;118434;-75
2022/12/11 05:49:00;;;;;;;11.83;7.37;;;2.10;89.30;;;2.51;56.60;98067.88;4967877;28;119020;-75
2022/12/11 05:51:28;;;;;;;14.70;8.50;;;2.10;89.10;;;2.49;56.70;98075.50;4933204;28;123837;-75
2022/12/11 05:53:57;;;;;;;13.70;8.00;;;2.50;89.50;;;2.51;56.60;98081.50;4950685;28;123437;-74
2022/12/11 05:56:28;;;;;;;16.13;8.60;;;2.00;89.00;;;2.51;56.67;98076.88;4946929;28;119288;-75
2022/12/11 05:58:56;;;;;;;13.70;8.70;;;2.00;89.00;;;2.50;56.58;98077.97;4945802;28;119030;-75
2022/12/11 06:01:35;;;;;;;12.37;8.00;;;2.00;89.50;;;2.50;56.53;98074.41;4968486;28;122778;-75
2022/12/11 06:04:04;;;;;;;14.60;9.23;;;2.00;88.80;;;2.43;56.48;98080.16;4948726;28;123198;-75
2022/12/11 06:06:31;;;;;;;11.53;7.50;;;1.90;88.70;;;2.42;56.53;98078.53;4966902;28;119195;-75
2022/12/11 06:08:59;;;;;;;11.83;7.30;;;1.90;88.90;;;2.43;56.67;98080.16;4931419;28;118323;-74
2022/12/11 06:11:30;;;;;;;16.17;8.03;;;2.00;89.00;;;2.44;56.45;98089.97;4965008;28;123306;-75
2022/12/11 06:13:57;;;;;;;15.43;9.17;;;1.90;89.00;;;2.44;56.52;98087.25;4947512;28;123839;-74
2022/12/11 06:16:24;;;;;;;13.57;7.90;;;2.00;89.00;;;2.43;56.91;98085.63;4965005;28;120343;-74
2022/12/11 06:18:51;;;;;;;13.57;8.43;;;3.90;90.30;;;2.42;56.91;98084.00;4946736;28;120050;-74
2022/12/11 06:21:30;;;;;;;15.60;9.60;;;1.90;89.00;;;2.42;56.54;98084.00;4950097;28;124316;-75
2022/12/11 06:23:59;;;;;;;17.33;9.50;;;1.90;89.20;;;2.38;56.98;98074.72;4930654;28;123219;-75
2022/12/11 06:26:27;;;;;;;14.13;8.57;;;1.90;89.30;;;2.34;57.16;98071.75;4929283;28;118548;-75
2022/12/11 06:28:54;;;;;;;18.50;10.93;;;1.90;89.40;;;2.32;57.09;98073.94;4930957;28;119354;-75
2022/12/11 06:31:20;;;;;;;13.47;8.57;;;1.90;89.50;;;2.32;57.33;98068.47;4923455;28;124394;-75
2022/12/11 06:33:47;;;;;;;16.97;10.27;;;1.90;89.60;;;2.30;57.44;98064.41;4929655;28;122593;-75
2022/12/11 06:36:19;;;;;;;18.90;11.00;;;1.90;89.60;;;2.28;57.60;98067.38;4944142;28;119164;-75
2022/12/11 06:38:46;;;;;;;14.90;9.70;;;1.80;89.60;;;2.24;57.52;98066.31;4943172;28;118902;-73
2022/12/11 06:41:13;;;;;;;16.40;9.03;;;1.80;89.70;;;2.24;57.43;98065.50;4945512;28;124022;-76
2022/12/11 06:43:41;;;;;;;17.87;9.73;;;2.00;90.00;;;2.22;57.05;98063.84;4944813;28;123872;-74
2022/12/11 06:46:12;;;;;;;18.73;9.20;;;2.50;90.20;;;2.22;57.77;98063.84;4926981;28;119270;-75
2022/12/11 06:48:41;;;;;;;20.03;11.50;;;1.80;89.90;;;2.19;57.62;98064.41;4929822;28;118558;-75
2022/12/11 06:51:16;;;;;;;18.33;9.70;;;1.70;89.80;;;2.17;57.57;98065.78;4946410;28;124132;-74
2022/12/11 06:53:43;;;;;;;15.07;9.20;;;1.70;89.80;;;2.14;57.59;98061.69;4942882;28;123740;-74
2022/12/11 06:56:13;;;;;;;13.37;8.40;;;1.70;89.90;;;2.14;57.72;98069.88;4943710;28;119238;-75
2022/12/11 06:58:41;;;;;;;15.07;9.67;;;1.70;90.00;;;2.14;57.72;98071.78;4926631;28;119634;-75
2022/12/11 07:01:25;;;;;;;14.97;8.90;;;2.80;90.40;;;2.16;57.88;98080.50;4942515;28;124023;-75
2022/12/11 07:03:54;;;;;;;18.60;9.73;;;1.60;90.00;;;2.11;58.04;98077.78;4928716;28;124282;-75
2022/12/11 07:06:20;;;;;;;14.17;9.60;;;2.70;90.40;;;2.10;57.68;98082.44;4949241;28;119415;-75
2022/12/11 07:08:47;;;;;;;18.23;10.60;;;1.70;90.00;;;2.10;57.66;98087.88;4937604;28;119808;-75
2022/12/11 07:11:16;;;;;;;12.50;8.93;;;1.70;90.00;;;2.10;58.09;98093.31;4919395;28;122962;-75
2022/12/11 07:13:43;;;;;;;15.70;10.00;;;2.30;90.20;;;2.10;58.04;98087.06;4941580;28;123845;-75
2022/12/11 07:16:11;;;;;;;16.03;9.10;;;2.00;90.10;;;2.10;58.16;98087.06;4929384;28;119185;-75
2022/12/11 07:18:46;;;;;;;15.10;9.30;;;1.60;90.00;;;2.10;57.65;98081.63;4946382;28;118668;-75
2022/12/11 07:21:14;;;;;;;16.60;9.63;;;1.60;90.00;;;2.08;58.10;98084.59;4931048;28;123919;-75
2022/12/11 07:23:41;;;;;;;17.43;10.20;;;1.60;90.00;;;2.09;57.85;98090.88;4929051;28;123540;-75
2022/12/11 07:26:14;;;;;;;13.77;7.90;;;1.60;90.00;;;2.09;57.75;98088.94;4946487;28;119214;-74
2022/12/11 07:28:41;;;;;;;18.70;11.00;;;1.60;90.10;;;2.06;57.68;98089.50;4934992;28;117954;-75
2022/12/11 07:31:15;;;;;;;16.17;9.83;;;1.60;90.10;;;2.09;57.76;98094.41;4957783;28;123973;-74
2022/12/11 07:33:42;;;;;;;14.53;8.70;;;1.60;90.10;;;2.08;58.06;98090.06;4927912;28;123758;-75
2022/12/11 07:36:11;;;;;;;15.00;9.33;;;2.20;90.30;;;2.09;57.90;98096.31;4941376;28;119091;-75
2022/12/11 07:38:38;;;;;;;15.23;9.33;;;1.60;90.10;;;2.10;57.90;98097.97;4929316;28;117925;-75
2022/12/11 07:41:08;;;;;;;14.33;8.50;;;1.60;90.10;;;2.11;58.02;98099.59;4943103;28;123556;-75
2022/12/11 07:43:35;;;;;;;17.00;9.00;;;1.60;90.10;;;2.11;57.84;98099.59;4937290;28;124256;-75
2022/12/11 07:46:11;;;;;;;13.03;8.40;;;1.60;90.00;;;2.13;57.40;98100.13;4958770;28;119061;-75
2022/12/11 07:48:40;;;;;;;16.40;10.53;;;1.60;90.00;;;2.11;57.53;98105.03;4929270;28;120021;-75
2022/12/11 07:51:14;;;;;;;14.90;8.97;;;1.60;89.90;;;2.13;57.71;98102.88;4945909;28;124007;-75
2022/12/11 07:53:45;;;;;;;17.93;10.47;;;1.60;90.10;;;2.10;57.73;98095.25;4928398;28;122512;-75
2022/12/11 07:56:13;;;;;;;14.70;8.03;;;1.60;90.00;;;2.11;57.70;98094.94;4913473;28;119476;-75
2022/12/11 07:58:39;;;;;;;13.50;8.67;;;1.60;90.00;;;2.13;57.70;98092.78;4916150;28;119484;-75
2022/12/11 08:01:15;;;;;;;14.70;9.83;;;1.60;90.00;;;2.16;57.66;98097.66;4930126;28;124018;-74
2022/12/11 08:03:43;;;;;;;18.00;10.40;;;1.60;90.00;;;2.13;57.66;98094.69;4928541;28;124099;-78
2022/12/11 08:06:10;;;;;;;16.33;8.90;;;1.60;90.00;;;2.13;57.43;98091.97;4927599;28;119430;-77
2022/12/11 08:08:38;;;;;;;15.30;8.63;;;1.60;89.90;;;2.15;57.79;98090.59;4945955;28;118697;-76
2022/12/11 08:11:08;;;;;;;10.50;7.00;;;1.60;89.90;;;2.36;60.37;98087.81;4936118;28;124079;-73
2022/12/11 08:13:35;;;;;;;14.60;8.77;;;1.80;91.50;;;2.73;61.75;98087.41;4944690;28;123763;-73
2022/12/11 08:16:07;;;;;;;18.10;10.30;;;2.00;92.70;;;3.10;62.58;98086.16;4923349;28;119346;-73
2022/12/11 08:18:35;;;;;;;18.07;9.70;;;2.20;93.40;;;3.37;62.48;98082.19;4933099;28;118120;-73
2022/12/11 08:21:12;;;;;;;16.03;9.43;;;3.60;94.20;;;3.64;62.30;98087.19;4945206;28;123025;-73
2022/12/11 08:23:39;;;;;;;17.50;8.47;;;2.60;93.80;;;3.71;62.31;98079.50;4926090;28;124205;-73
2022/12/11 08:26:09;;;;;;;17.60;10.10;;;2.70;93.50;;;3.84;61.70;98086.19;4922897;28;119177;-73
2022/12/11 08:28:36;;;;;;;13.80;8.37;;;5.00;94.40;;;3.96;61.81;98084.72;4929972;28;118950;-73
2022/12/11 08:31:05;;;;;;;16.90;9.33;;;2.90;93.70;;;4.09;61.13;98085.19;4949560;28;123210;-73
2022/12/11 08:33:31;;;;;;;16.93;10.07;;;3.00;93.50;;;4.13;60.69;98080.75;4943530;28;122827;-73
2022/12/11 08:36:03;;;;;;;15.03;10.20;;;3.10;93.20;;;4.16;60.29;98083.75;4964376;28;119273;-73
2022/12/11 08:38:30;;;;;;;15.73;8.43;;;3.20;92.90;;;4.16;60.38;98083.75;4964764;28;118901;-76
2022/12/11 08:40:57;;;;;;;17.90;8.73;;;5.60;93.80;;;4.25;59.71;98085.84;4931003;28;123745;-77
2022/12/11 08:43:24;;;;;;;16.17;9.47;;;5.50;93.70;;;4.27;59.33;98084.44;4964405;28;123867;-77
2022/12/11 08:45:50;;;;;;;14.57;8.67;;;3.40;92.60;;;4.26;59.12;98080.06;4964199;28;121199;-77
2022/12/11 08:48:17;;;;;;;14.30;9.00;;;3.40;92.20;;;4.20;58.51;98086.69;4943599;28;119931;-77
2022/12/11 08:50:43;;;;;;;16.03;7.70;;;3.90;91.90;;;4.14;57.57;98087.88;4964442;28;124038;-77
2022/12/11 08:53:10;;;;;;;13.47;8.87;;;4.30;91.50;;;4.05;57.39;98092.31;4928345;28;122595;-74
2022/12/11 08:55:36;;;;;;;16.40;8.80;;;3.40;90.80;;;3.97;56.65;98091.00;4964407;28;119207;-75
2022/12/11 08:58:03;;;;;;;13.47;8.57;;;3.30;90.50;;;3.90;56.54;98096.00;4923168;28;118835;-74
2022/12/11 09:00:29;;;;;;;12.93;7.90;;;3.30;90.30;;;3.82;56.03;98086.50;4948708;28;123385;-76
2022/12/11 09:02:56;;;;;;;21.80;10.73;;;3.20;90.10;;;3.75;56.60;98084.06;4958147;28;123885;-75
2022/12/11 09:05:22;;;;;;;15.30;9.10;;;3.20;90.00;;;3.72;56.46;98078.38;4962128;28;119232;-75
2022/12/11 09:07:49;;;;;;;15.10;8.77;;;3.20;90.00;;;3.70;56.04;98084.13;4965119;28;118927;-75
2022/12/11 09:10:18;;;;;;;15.70;9.13;;;3.10;89.90;;;3.70;55.84;98080.56;4946910;28;123898;-74
2022/12/11 09:12:45;;;;;;;13.97;8.87;;;3.10;89.70;;;3.66;55.85;98082.25;4950598;28;123400;-76
2022/12/11 09:15:12;;;;;;;14.00;9.87;;;3.10;89.60;;;3.64;55.84;98082.53;4965206;28;119130;-75
2022/12/11 09:17:39;;;;;;;17.53;10.20;;;3.10;89.50;;;3.64;56.28;98087.19;4945976;28;118999;-76
2022/12/11 09:20:06;;;;;;;16.20;8.90;;;3.10;89.50;;;3.64;55.86;98076.25;4969894;28;123391;-75
2022/12/11 09:22:33;;;;;;;17.23;9.93;;;3.10;89.50;;;3.62;56.20;98079.25;4976939;28;123394;-74
2022/12/11 09:24:59;;;;;;;20.83;12.27;;;3.10;89.30;;;3.57;55.88;98086.69;4945707;28;119073;-75
2022/12/11 09:27:25;;;;;;;15.07;9.37;;;3.00;88.80;;;3.51;55.43;98081.25;4967171;28;119208;-75
2022/12/11 09:29:52;;;;;;;19.23;9.20;;;3.00;89.10;;;3.49;56.04;98080.75;4944046;28;123340;-75
2022/12/11 09:32:18;;;;;;;16.07;9.17;;;3.00;89.20;;;3.51;55.85;98078.53;4967397;28;123870;-75
2022/12/11 09:34:45;;;;;;;15.13;9.10;;;3.60;89.80;;;3.53;55.60;98079.06;4948045;28;120160;-75
2022/12/11 09:37:11;;;;;;;18.60;10.07;;;3.00;89.20;;;3.57;55.83;98081.22;4966304;28;119983;-75
2022/12/11 09:39:38;;;;;;;13.90;8.80;;;3.00;89.20;;;3.61;56.23;98074.09;4965328;28;123781;-75
2022/12/11 09:42:19;;;;;;;15.97;9.57;;;3.00;89.20;;;3.68;55.36;98074.56;4967230;28;123708;-76
2022/12/11 09:45:01;;;;;;;16.23;9.10;;;3.10;89.10;;;3.69;55.30;98059.84;4967024;28;118277;-75
2022/12/11 09:47:37;;;;;;;24.03;11.00;;;3.10;89.00;;;3.71;56.58;98061.19;4964741;28;118224;-78
2022/12/11 09:50:23;;;;;;;20.70;10.83;;;3.40;89.60;;;3.80;56.91;98064.09;4967181;28;123703;-76
2022/12/11 09:53:16;;;;;;;14.63;8.80;;;3.20;90.00;;;3.91;57.06;98065.63;4951776;28;123925;-76
2022/12/11 09:56:13;;;;;;;17.77;10.17;;;3.30;90.40;;;4.04;57.11;98061.44;4969765;28;119883;-75
2022/12/11 09:59:07;;;;;;;22.70;11.00;;;3.40;90.70;;;4.14;58.37;98057.78;4934821;28;118831;-74
2022/12/11 10:01:54;;;;;;;13.80;8.40;;;3.50;90.90;;;4.33;57.71;98058.69;4978853;28;123971;-74
2022/12/11 10:05:03;;;;;;;22.20;9.80;;;3.70;91.10;;;4.34;56.59;98057.56;4966152;28;123572;-75
2022/12/11 10:07:52;;;;;;;14.67;8.90;;;3.70;90.50;;;4.29;55.75;98059.53;4944686;28;119255;-75
2022/12/11 10:10:42;;;;;;;15.90;8.27;;;3.70;90.00;;;4.24;55.84;98056.84;4952407;28;118524;-76
2022/12/11 10:14:07;;;;;;;14.27;8.60;;;3.70;89.60;;;4.22;55.14;98048.97;4941477;28;123761;-75
2022/12/11 10:17:01;;;;;;;12.27;7.50;;;3.70;89.10;;;4.24;55.21;98048.66;4943747;28;122550;-74
2022/12/11 10:19:30;;;;;;;11.90;7.20;;;3.70;88.80;;;4.26;54.99;98046.44;4949607;28;118602;-76
2022/12/11 10:21:59;;;;;;;18.73;8.97;;;4.10;88.90;;;4.29;55.11;98043.94;4930308;28;118132;-74
2022/12/11 10:24:54;;;;;;;13.40;8.47;;;3.80;88.40;;;4.34;54.52;98041.16;4945510;28;123867;-75
2022/12/11 10:27:30;;;;;;;15.30;7.90;;;3.80;88.10;;;4.32;54.26;98035.16;4933918;28;123417;-76
2022/12/11 10:30:22;;;;;;;13.03;8.23;;;3.80;87.70;;;4.35;53.82;98026.41;4929220;28;120834;-75
2022/12/11 10:33:13;;;;;;;13.07;7.63;;;3.80;87.40;;;4.34;54.20;98029.41;4934649;28;119627;-75
2022/12/11 10:35:58;;;;;;;13.23;7.83;;;4.60;87.80;;;4.35;54.10;98023.66;4934003;28;124099;-75
2022/12/11 10:38:32;;;;;;;12.83;8.70;;;3.80;87.10;;;4.35;53.92;98026.41;4930515;28;123714;-77
2022/12/11 10:41:04;;;;;;;16.20;9.83;;;3.80;87.20;;;4.37;54.17;98015.97;4932418;28;119197;-75
2022/12/11 10:43:44;;;;;;;16.33;9.43;;;3.90;87.50;;;4.39;54.28;98012.94;4914560;28;118600;-77
2022/12/11 10:46:26;;;;;;;17.77;10.50;;;3.90;87.60;;;4.41;54.87;98018.94;4948640;28;123875;-75